Saturday, November 18, 2017, 7:03 AM EST
Back to Local

KVSF, Hartness State Airport

Location: Perkinsville, VT, United States Lat: 43.35
Local Time: 7:03 AM EST (12:03 GMT) Lon: -72.517
Time Zone: US/Eastern Elev: 577 ft

Show me the last for .
Show Decoded

2017-11-18 05:54 METAR KVSF 181054Z AUTO 00000KT 10SM CLR M07/M08 A2996 RMK AO2 SLP155 T10671078
                 =
2017-11-18 04:54 METAR KVSF 180954Z AUTO 00000KT 10SM CLR M07/M08 A2998 RMK AO2 SLP159 T10671083
                 =
2017-11-18 03:54 METAR KVSF 180854Z AUTO 00000KT 10SM CLR M06/M08 A2998 RMK AO2 SLP161 T10611078
                 56007 =
2017-11-18 02:54 METAR KVSF 180754Z AUTO 00000KT 10SM CLR M06/M08 A2999 RMK AO2 SLP162 T10561083
                 =
2017-11-18 01:54 METAR KVSF 180654Z AUTO VRB03KT 10SM CLR M06/M08 A3000 RMK AO2 SLP166 T10561083
                 =
2017-11-18 00:54 METAR KVSF 180554Z AUTO 00000KT 10SM CLR M04/M08 A3000 RMK AO2 SLP168 T10441083
                 11006 21044 58001 =
2017-11-17 23:54 METAR KVSF 180454Z AUTO 20003KT 10SM CLR M03/M09 A3002 RMK AO2 SLP174 T10281089
                 400331039 =
2017-11-17 22:54 METAR KVSF 180354Z AUTO VRB04KT 10SM CLR M03/M09 A3001 RMK AO2 SLP169 T10281094
                 =
2017-11-17 21:54 METAR KVSF 180254Z AUTO VRB04KT 10SM CLR M01/M10 A3001 RMK AO2 SLP168 T10111100
                 58003 =
2017-11-17 20:54 METAR KVSF 180154Z AUTO 00000KT 10SM CLR M01/M09 A3000 RMK AO2 SLP168 T10111094
                 =
2017-11-17 19:54 METAR KVSF 180054Z AUTO VRB04KT 10SM CLR M01/M09 A3002 RMK AO2 SLP173 T10111089
                 =
2017-11-17 18:54 METAR KVSF 172354Z AUTO 15004KT 10SM CLR M01/M08 A3002 RMK AO2 SLP172 T10111083
                 10033 21011 53013 =
2017-11-17 17:54 METAR KVSF 172254Z AUTO 30005KT 10SM CLR 00/M08 A3000 RMK AO2 SLP166 T00001078 =
2017-11-17 16:54 METAR KVSF 172154Z AUTO VRB06KT 10SM CLR 01/M07 A2999 RMK AO2 SLP163 T00111072 =
2017-11-17 15:54 METAR KVSF 172054Z AUTO 31010G18KT 10SM CLR 02/M07 A2998 RMK AO2 SLP158
                 T00221067 53005 =
2017-11-17 14:54 METAR KVSF 171954Z AUTO VRB04KT 10SM CLR 03/M06 A2996 RMK AO2 SLP153 T00281061 =
2017-11-17 13:54 METAR KVSF 171854Z AUTO 32011G17KT 10SM CLR 02/M06 A2995 RMK AO2 SLP149
                 T00221056 =
2017-11-17 12:54 METAR KVSF 171754Z AUTO 33012G23KT 10SM FEW036 01/M06 A2996 RMK AO2 PK WND
                 30029/1727 SLP152 T00111061 10017 20000 56010 =
2017-11-17 11:54 METAR KVSF 171654Z AUTO 31009G20KT 280V350 10SM SCT034 01/M06 A2996 RMK AO2 PK
                 WND 30026/1638 SLP152 T00111061 =
2017-11-17 10:54 METAR KVSF 171554Z AUTO 30009G16KT 10SM BKN032 01/M06 A2998 RMK AO2 PK WND
                 31026/1522 SLP157 T00111061 =
2017-11-17 09:54 METAR KVSF 171454Z AUTO 30011G16KT 10SM SCT030 BKN039 01/M06 A2999 RMK AO2
                 SLP163 T00061056 51024 =
2017-11-17 09:12 METAR KVSF 171412Z AUTO 31009G17KT 10SM BKN030 OVC039 00/M06 A2998 RMK AO2
                 T00001056 =
2017-11-17 08:54 METAR KVSF 171354Z AUTO 32008G21KT 270V360 10SM OVC029 00/M06 A2998 RMK AO2
                 SLP159 T00001056 =
2017-11-17 07:54 METAR KVSF 171254Z AUTO 31008G14KT 270V010 10SM OVC028 00/M05 A2995 RMK AO2
                 SLP150 T00001050 =

Support USWX by starting your Amazon purchase here.